createdAt,value
2022-07-25T00:01:54.692Z,3.72
2022-07-25T00:04:23.689Z,4.70
2022-07-25T00:06:50.498Z,4.45
2022-07-25T00:09:17.533Z,3.92
2022-07-25T00:11:44.882Z,3.88
2022-07-25T00:14:11.762Z,5.15
2022-07-25T00:16:38.765Z,3.72
2022-07-25T00:19:06.306Z,5.85
2022-07-25T00:21:33.374Z,3.05
2022-07-25T00:24:00.329Z,5.80
2022-07-25T00:26:27.123Z,6.65
2022-07-25T00:28:54.127Z,4.00
2022-07-25T00:31:20.922Z,3.05
2022-07-25T00:33:47.723Z,5.13
2022-07-25T00:36:14.462Z,3.88
2022-07-25T00:38:41.279Z,4.03
2022-07-25T00:41:08.057Z,3.03
2022-07-25T00:43:34.816Z,3.67
2022-07-25T00:46:01.697Z,4.68
2022-07-25T00:48:28.897Z,6.07
2022-07-25T00:50:56.747Z,7.50
2022-07-25T00:53:24.315Z,4.50
2022-07-25T00:55:51.782Z,4.60
2022-07-25T00:58:18.954Z,5.03
2022-07-25T01:00:46.643Z,5.85
2022-07-25T01:03:13.612Z,7.95
2022-07-25T01:05:40.809Z,3.67
2022-07-25T01:08:08.244Z,4.10
2022-07-25T01:10:35.881Z,4.95
2022-07-25T01:13:02.732Z,6.05
2022-07-25T01:15:30.015Z,6.90
2022-07-25T01:17:57.000Z,5.28
2022-07-25T01:20:26.486Z,5.40
2022-07-25T01:22:53.844Z,7.70
2022-07-25T01:25:21.691Z,7.30
2022-07-25T01:27:54.433Z,7.75
2022-07-25T01:30:23.486Z,6.80
2022-07-25T01:32:50.681Z,7.20
2022-07-25T01:35:17.584Z,6.25
2022-07-25T01:37:45.989Z,8.65
2022-07-25T01:40:14.554Z,5.63
2022-07-25T01:42:42.559Z,6.88
2022-07-25T01:45:11.159Z,7.07
2022-07-25T01:47:38.032Z,9.43
2022-07-25T01:50:05.535Z,7.82
2022-07-25T01:52:32.437Z,11.70
2022-07-25T01:54:59.450Z,7.35
2022-07-25T01:57:30.801Z,7.75
2022-07-25T01:59:58.564Z,8.88
2022-07-25T02:02:25.496Z,7.78
2022-07-25T02:04:52.902Z,8.75
2022-07-25T02:07:19.768Z,7.53
2022-07-25T02:09:46.595Z,10.13
2022-07-25T02:12:13.441Z,8.50
2022-07-25T02:14:40.857Z,9.80
2022-07-25T02:17:08.181Z,9.82
2022-07-25T02:19:35.844Z,8.20
2022-07-25T02:22:03.079Z,7.38
2022-07-25T02:24:29.924Z,7.22
2022-07-25T02:26:56.659Z,11.80
2022-07-25T02:29:24.374Z,8.50
2022-07-25T02:31:52.993Z,8.80
2022-07-25T02:34:20.924Z,9.18
2022-07-25T02:36:47.941Z,9.70
2022-07-25T02:39:14.758Z,7.72
2022-07-25T02:41:41.524Z,7.93
2022-07-25T02:44:08.587Z,9.80
2022-07-25T02:46:35.874Z,12.43
2022-07-25T02:49:02.947Z,9.00
2022-07-25T02:51:29.929Z,8.93
2022-07-25T02:54:09.508Z,8.05
2022-07-25T02:56:36.387Z,7.75
2022-07-25T02:59:03.238Z,7.95
2022-07-25T03:01:30.192Z,10.13
2022-07-25T03:03:57.205Z,7.97
2022-07-25T03:06:24.049Z,8.95
2022-07-25T03:08:50.814Z,7.47
2022-07-25T03:11:18.400Z,9.68
2022-07-25T03:13:45.179Z,8.02
2022-07-25T03:16:11.984Z,7.50
2022-07-25T03:18:38.820Z,9.25
2022-07-25T03:21:05.938Z,7.15
2022-07-25T03:23:33.497Z,8.85
2022-07-25T03:26:00.365Z,8.80
2022-07-25T03:28:27.160Z,7.18
2022-07-25T03:30:54.043Z,8.27
2022-07-25T03:33:20.839Z,9.50
2022-07-25T03:35:47.619Z,8.20
2022-07-25T03:38:14.429Z,6.63
2022-07-25T03:40:41.316Z,7.13
2022-07-25T03:43:08.109Z,9.77
2022-07-25T03:45:35.122Z,8.07
2022-07-25T03:48:02.156Z,7.38
2022-07-25T03:50:28.974Z,7.75
2022-07-25T03:52:56.079Z,7.43
2022-07-25T03:55:22.913Z,9.27
2022-07-25T03:57:49.750Z,8.52
2022-07-25T04:00:17.643Z,8.32
2022-07-25T04:02:44.507Z,6.72
2022-07-25T04:05:11.654Z,6.85
2022-07-25T04:07:38.816Z,7.80
2022-07-25T04:10:06.738Z,8.05
2022-07-25T04:12:33.979Z,6.95
2022-07-25T04:15:01.260Z,7.97
2022-07-25T04:17:28.051Z,8.23
2022-07-25T04:19:54.951Z,7.38
2022-07-25T04:22:22.321Z,7.78
2022-07-25T04:24:49.228Z,7.45
2022-07-25T04:27:16.010Z,7.70
2022-07-25T04:29:42.896Z,9.43
2022-07-25T04:32:09.821Z,9.60
2022-07-25T04:34:36.609Z,8.90
2022-07-25T04:37:03.440Z,9.02
2022-07-25T04:39:30.214Z,8.00
2022-07-25T04:41:57.180Z,8.35
2022-07-25T04:44:24.459Z,9.70
2022-07-25T04:46:51.462Z,9.80
2022-07-25T04:49:18.391Z,11.40
2022-07-25T04:51:45.286Z,10.88
2022-07-25T04:54:12.117Z,10.75
2022-07-25T04:56:38.905Z,14.18
2022-07-25T04:59:06.581Z,10.57
2022-07-25T05:01:34.363Z,11.57
2022-07-25T05:04:01.257Z,9.60
2022-07-25T05:06:28.091Z,13.15
2022-07-25T05:08:55.479Z,10.57
2022-07-25T05:11:22.481Z,11.70
2022-07-25T05:13:49.297Z,10.73
2022-07-25T05:16:16.412Z,10.52
2022-07-25T05:18:43.292Z,11.38
2022-07-25T05:21:12.300Z,9.98
2022-07-25T05:23:39.453Z,10.40
2022-07-25T05:26:06.344Z,12.38
2022-07-25T05:28:33.131Z,11.48
2022-07-25T05:30:59.883Z,12.13
2022-07-25T05:33:26.880Z,10.70
2022-07-25T05:35:53.781Z,8.85
2022-07-25T05:38:20.764Z,9.50
2022-07-25T05:40:48.225Z,11.93
2022-07-25T05:43:15.133Z,9.18
2022-07-25T05:45:42.522Z,9.48
2022-07-25T05:48:09.436Z,9.60
2022-07-25T05:50:39.723Z,10.07
2022-07-25T05:53:06.945Z,9.98
2022-07-25T05:55:33.902Z,9.90
2022-07-25T05:58:02.437Z,11.80
2022-07-25T06:00:29.776Z,8.63
2022-07-25T06:03:00.501Z,7.95
2022-07-25T06:05:27.560Z,9.80
2022-07-25T06:07:54.582Z,9.65
2022-07-25T06:10:22.063Z,10.45
2022-07-25T06:12:49.985Z,11.50
2022-07-25T06:15:22.149Z,9.05
2022-07-25T06:17:49.930Z,8.45
2022-07-25T06:20:17.005Z,8.98
2022-07-25T06:22:43.870Z,8.63
2022-07-25T06:25:10.954Z,8.70
2022-07-25T06:27:38.781Z,12.23
2022-07-25T06:30:18.721Z,12.43
2022-07-25T06:32:47.826Z,8.32
2022-07-25T06:35:14.630Z,10.57
2022-07-25T06:37:41.606Z,7.75
2022-07-25T06:40:09.353Z,9.20
2022-07-25T06:42:44.350Z,7.88
2022-07-25T06:45:12.212Z,9.15
2022-07-25T06:47:40.588Z,9.05
2022-07-25T06:50:11.288Z,8.13
2022-07-25T06:52:39.052Z,8.25
2022-07-25T06:55:07.808Z,9.73
2022-07-25T06:57:35.459Z,8.85
2022-07-25T07:00:06.769Z,8.65
2022-07-25T07:02:33.763Z,8.45
2022-07-25T07:05:00.570Z,10.27
2022-07-25T07:07:27.702Z,7.90
2022-07-25T07:09:54.472Z,9.10
2022-07-25T07:12:22.159Z,7.70
2022-07-25T07:14:49.077Z,8.48
2022-07-25T07:17:15.826Z,7.90
2022-07-25T07:19:45.792Z,6.88
2022-07-25T07:22:12.567Z,9.63
2022-07-25T07:24:44.317Z,8.77
2022-07-25T07:27:11.975Z,7.93
2022-07-25T07:29:38.756Z,8.48
2022-07-25T07:32:07.035Z,8.07
2022-07-25T07:34:34.036Z,7.35
2022-07-25T07:37:00.872Z,10.13
2022-07-25T07:39:27.678Z,8.70
2022-07-25T07:41:54.457Z,8.45
2022-07-25T07:44:21.313Z,8.80
2022-07-25T07:46:48.993Z,8.57
2022-07-25T07:49:16.019Z,7.30
2022-07-25T07:51:43.012Z,7.93
2022-07-25T07:54:28.448Z,7.13
2022-07-25T07:56:55.239Z,9.98
2022-07-25T07:59:22.059Z,8.75
2022-07-25T08:01:49.012Z,7.95
2022-07-25T08:04:16.293Z,8.18
2022-07-25T08:06:43.243Z,7.32
2022-07-25T08:09:10.336Z,6.85
2022-07-25T08:11:37.281Z,8.90
2022-07-25T08:14:05.480Z,8.07
2022-07-25T08:16:33.421Z,8.07
2022-07-25T08:19:00.469Z,6.80
2022-07-25T08:21:27.331Z,7.07
2022-07-25T08:23:54.423Z,9.15
2022-07-25T08:26:21.203Z,9.77
2022-07-25T08:28:52.546Z,7.43
2022-07-25T08:31:27.301Z,9.95
2022-07-25T08:33:54.158Z,6.97
2022-07-25T08:36:20.923Z,6.13
2022-07-25T08:38:47.822Z,8.10
2022-07-25T08:41:14.608Z,6.63
2022-07-25T08:43:43.109Z,5.78
2022-07-25T08:46:10.302Z,5.82
2022-07-25T08:48:39.046Z,6.20
2022-07-25T08:51:07.325Z,4.82
2022-07-25T08:53:36.254Z,5.28
2022-07-25T08:56:16.032Z,4.57
2022-07-25T08:58:45.749Z,7.60
2022-07-25T09:01:13.905Z,4.88
2022-07-25T09:03:42.970Z,5.93
2022-07-25T09:06:20.766Z,6.60
2022-07-25T09:08:59.496Z,5.75
2022-07-25T09:11:34.607Z,4.40
2022-07-25T09:14:11.079Z,5.65
2022-07-25T09:16:44.241Z,5.45
2022-07-25T09:19:12.956Z,6.22
2022-07-25T09:21:41.086Z,4.50
2022-07-25T09:24:16.966Z,2.40
2022-07-25T09:26:53.426Z,2.85
2022-07-25T09:29:24.878Z,2.72
2022-07-25T09:31:53.236Z,2.75
2022-07-25T09:34:50.656Z,8.18
2022-07-25T09:37:19.538Z,3.17
2022-07-25T09:39:49.337Z,3.75
2022-07-25T09:42:22.237Z,2.42
2022-07-25T09:45:11.365Z,2.83
2022-07-25T09:47:55.960Z,2.38
2022-07-25T09:50:24.529Z,5.30
2022-07-25T09:52:53.333Z,4.07
2022-07-25T09:55:21.304Z,4.88
2022-07-25T09:57:49.718Z,2.83
2022-07-25T10:00:24.048Z,2.38
2022-07-25T10:03:02.344Z,2.60
2022-07-25T10:05:49.711Z,2.38
2022-07-25T10:08:18.358Z,2.38
2022-07-25T10:10:45.361Z,2.80
2022-07-25T10:13:15.570Z,3.83
2022-07-25T10:15:51.099Z,2.22
2022-07-25T10:18:21.214Z,2.70
2022-07-25T10:20:50.856Z,2.17
2022-07-25T10:23:28.291Z,1.52
2022-07-25T10:26:04.038Z,2.15
2022-07-25T10:28:45.943Z,1.40
2022-07-25T10:31:22.246Z,4.07
2022-07-25T10:34:01.908Z,3.55
2022-07-25T10:36:42.304Z,3.42
2022-07-25T10:39:11.906Z,3.40
2022-07-25T10:41:40.677Z,2.20
2022-07-25T10:44:13.350Z,1.60
2022-07-25T10:46:41.007Z,2.50
2022-07-25T10:49:15.821Z,3.30
2022-07-25T10:51:55.064Z,2.53
2022-07-25T10:54:22.474Z,2.85
2022-07-25T10:56:57.814Z,2.10
2022-07-25T10:59:37.871Z,2.20
2022-07-25T11:02:06.975Z,4.05
2022-07-25T11:04:34.444Z,3.45
2022-07-25T11:07:09.701Z,2.80
2022-07-25T11:09:37.168Z,2.55
2022-07-25T11:12:04.383Z,4.18
2022-07-25T11:14:34.389Z,3.47
2022-07-25T11:17:18.674Z,5.10
2022-07-25T11:20:05.002Z,2.40
2022-07-25T11:22:33.160Z,4.05
2022-07-25T11:25:01.066Z,3.38
2022-07-25T11:27:30.975Z,3.63
2022-07-25T11:30:14.603Z,5.97
2022-07-25T11:32:47.329Z,4.18
2022-07-25T11:35:15.100Z,4.47
2022-07-25T11:37:47.792Z,4.03
2022-07-25T11:40:16.488Z,3.13
2022-07-25T11:42:49.523Z,3.38
2022-07-25T11:45:21.757Z,2.35
2022-07-25T11:48:10.063Z,2.05
2022-07-25T11:50:39.535Z,5.45
2022-07-25T11:53:09.837Z,7.93
2022-07-25T11:55:42.834Z,4.88
2022-07-25T11:58:11.583Z,7.93
2022-07-25T12:00:45.142Z,3.55
2022-07-25T12:03:20.299Z,4.00
2022-07-25T12:05:49.481Z,2.97
2022-07-25T12:08:18.910Z,5.40
2022-07-25T12:10:54.964Z,3.85
2022-07-25T12:13:26.943Z,4.03
2022-07-25T12:15:55.728Z,5.60
2022-07-25T12:18:22.662Z,8.10
2022-07-25T12:20:49.461Z,4.68
2022-07-25T12:23:16.275Z,5.15
2022-07-25T12:25:45.270Z,5.80
2022-07-25T12:28:12.715Z,3.80
2022-07-25T12:30:41.517Z,1.95
2022-07-25T12:33:09.515Z,3.78
2022-07-25T12:35:39.178Z,2.33
2022-07-25T12:38:06.082Z,5.97
2022-07-25T12:40:33.273Z,3.22
2022-07-25T12:43:01.142Z,6.15
2022-07-25T12:45:28.468Z,5.75
2022-07-25T12:47:56.155Z,2.08
2022-07-25T12:50:25.803Z,3.83
2022-07-25T12:52:53.037Z,5.25
2022-07-25T12:55:20.758Z,2.33
2022-07-25T12:57:49.415Z,2.42
2022-07-25T13:00:19.108Z,2.45
2022-07-25T13:02:46.132Z,3.38
2022-07-25T13:05:12.996Z,2.60
2022-07-25T13:07:39.945Z,3.42
2022-07-25T13:10:07.529Z,2.33
2022-07-25T13:12:35.366Z,5.00
2022-07-25T13:15:02.435Z,4.25
2022-07-25T13:17:29.278Z,2.25
2022-07-25T13:19:56.966Z,3.38
2022-07-25T13:22:24.711Z,2.47
2022-07-25T13:24:52.599Z,3.60
2022-07-25T13:27:20.930Z,3.47
2022-07-25T13:29:53.877Z,2.88
2022-07-25T13:32:21.313Z,4.35
2022-07-25T13:34:48.193Z,3.15
2022-07-25T13:37:15.153Z,6.10
2022-07-25T13:39:42.341Z,4.38
2022-07-25T13:42:09.596Z,2.95
2022-07-25T13:44:36.616Z,5.75
2022-07-25T13:47:03.862Z,3.70
2022-07-25T13:49:31.726Z,3.30
2022-07-25T13:51:58.556Z,2.58
2022-07-25T13:54:25.428Z,5.07
2022-07-25T13:56:52.253Z,3.95
2022-07-25T13:59:21.750Z,2.60
2022-07-25T14:01:50.717Z,7.30
2022-07-25T14:04:18.231Z,3.70
2022-07-25T14:06:45.213Z,4.35
2022-07-25T14:09:12.085Z,4.05
2022-07-25T14:11:38.871Z,3.35
2022-07-25T14:14:05.676Z,6.10
2022-07-25T14:16:33.881Z,3.45
2022-07-25T14:19:00.981Z,5.35
2022-07-25T14:21:27.869Z,5.80
2022-07-25T14:23:54.817Z,4.25
2022-07-25T14:26:21.933Z,5.20
2022-07-25T14:28:48.788Z,5.40
2022-07-25T14:31:15.818Z,6.82
2022-07-25T14:33:42.798Z,5.90
2022-07-25T14:36:10.122Z,4.38
2022-07-25T14:38:37.257Z,3.28
2022-07-25T14:41:12.082Z,4.57
2022-07-25T14:43:40.510Z,6.55
2022-07-25T14:46:08.266Z,3.83
2022-07-25T14:48:37.277Z,7.72
2022-07-25T14:51:04.705Z,3.80
2022-07-25T14:53:33.225Z,5.05
2022-07-25T14:56:00.962Z,2.78
2022-07-25T14:58:27.876Z,6.70
2022-07-25T15:00:54.791Z,4.85
2022-07-25T15:03:21.723Z,4.38
2022-07-25T15:05:48.591Z,4.50
2022-07-25T15:08:16.360Z,5.88
2022-07-25T15:10:43.359Z,4.20
2022-07-25T15:15:57.616Z,7.88
2022-07-25T15:18:24.492Z,7.00
2022-07-25T15:20:51.998Z,4.32
2022-07-25T15:23:20.883Z,4.05
2022-07-25T15:26:04.460Z,6.72
2022-07-25T15:28:36.927Z,4.95
2022-07-25T15:31:04.876Z,3.75
2022-07-25T15:33:32.138Z,3.53
2022-07-25T15:35:59.193Z,5.88
2022-07-25T15:38:26.127Z,4.47
2022-07-25T15:40:53.010Z,4.65
2022-07-25T15:43:19.827Z,3.30
2022-07-25T15:45:46.968Z,4.93
2022-07-25T15:48:16.266Z,5.70
2022-07-25T15:50:46.769Z,6.15
2022-07-25T15:53:14.094Z,5.40
2022-07-25T15:55:41.803Z,3.90
2022-07-25T15:58:10.092Z,2.88
2022-07-25T16:00:38.606Z,6.97
2022-07-25T16:03:06.970Z,4.70
2022-07-25T16:05:34.039Z,8.82
2022-07-25T16:08:01.774Z,4.45
2022-07-25T16:10:29.933Z,3.42
2022-07-25T16:12:56.679Z,5.47
2022-07-25T16:15:23.599Z,6.72
2022-07-25T16:17:53.027Z,5.15
2022-07-25T16:20:20.149Z,6.10
2022-07-25T16:22:49.031Z,5.25
2022-07-25T16:25:16.145Z,8.90
2022-07-25T16:27:42.993Z,4.88
2022-07-25T16:30:10.188Z,4.15
2022-07-25T16:32:36.997Z,5.22
2022-07-25T16:35:04.038Z,6.18
2022-07-25T16:37:30.958Z,4.05
2022-07-25T16:39:57.735Z,5.65
2022-07-25T16:42:24.809Z,4.03
2022-07-25T16:44:52.065Z,5.03
2022-07-25T16:47:18.827Z,5.07
2022-07-25T16:49:45.612Z,5.00
2022-07-25T16:52:12.385Z,7.13
2022-07-25T16:54:41.166Z,3.65
2022-07-25T16:57:09.067Z,4.10
2022-07-25T16:59:36.185Z,3.08
2022-07-25T17:02:03.961Z,4.45
2022-07-25T17:04:30.892Z,3.15
2022-07-25T17:06:57.999Z,5.10
2022-07-25T17:09:25.257Z,6.70
2022-07-25T17:11:52.291Z,7.57
2022-07-25T17:14:19.128Z,4.07
2022-07-25T17:16:46.229Z,4.45
2022-07-25T17:19:13.125Z,5.75
2022-07-25T17:21:39.887Z,3.80
2022-07-25T17:24:09.468Z,5.82
2022-07-25T17:26:36.322Z,4.15
2022-07-25T17:29:07.074Z,2.95
2022-07-25T17:31:34.971Z,4.43
2022-07-25T17:34:01.930Z,4.53
2022-07-25T17:36:28.811Z,3.22
2022-07-25T17:38:55.730Z,4.28
2022-07-25T17:41:22.534Z,4.35
2022-07-25T17:43:49.354Z,5.00
2022-07-25T17:46:16.246Z,4.28
2022-07-25T17:48:43.161Z,4.05
2022-07-25T17:51:10.021Z,5.20
2022-07-25T17:53:36.931Z,7.55
2022-07-25T17:56:04.435Z,5.38
2022-07-25T17:58:32.169Z,5.22
2022-07-25T18:01:01.401Z,4.53
2022-07-25T18:03:29.180Z,8.25
2022-07-25T18:05:56.373Z,4.05
2022-07-25T18:08:23.228Z,5.93
2022-07-25T18:10:50.391Z,4.55
2022-07-25T18:13:18.069Z,6.45
2022-07-25T18:15:46.047Z,9.13
2022-07-25T18:18:17.019Z,2.92
2022-07-25T18:20:47.030Z,7.53
2022-07-25T18:23:14.119Z,9.32
2022-07-25T18:25:40.998Z,6.32
2022-07-25T18:28:07.799Z,5.45
2022-07-25T18:30:34.885Z,5.22
2022-07-25T18:33:01.762Z,8.45
2022-07-25T18:35:28.814Z,2.53
2022-07-25T18:37:55.787Z,5.13
2022-07-25T18:40:22.743Z,5.03
2022-07-25T18:42:49.571Z,6.78
2022-07-25T18:45:16.430Z,6.18
2022-07-25T18:47:43.805Z,4.80
2022-07-25T18:50:11.369Z,6.05
2022-07-25T18:52:38.369Z,6.68
2022-07-25T18:55:07.767Z,9.98
2022-07-25T18:57:34.871Z,3.28
2022-07-25T19:00:03.447Z,7.97
2022-07-25T19:02:30.756Z,5.40
2022-07-25T19:04:57.553Z,7.10
2022-07-25T19:07:24.422Z,4.05
2022-07-25T19:09:51.333Z,8.55
2022-07-25T19:12:18.154Z,4.32
2022-07-25T19:14:44.937Z,6.53
2022-07-25T19:17:11.927Z,2.10
2022-07-25T19:19:38.810Z,7.25
2022-07-25T19:22:05.608Z,6.22
2022-07-25T19:24:32.465Z,8.90
2022-07-25T19:26:59.270Z,5.95
2022-07-25T19:29:26.913Z,6.47
2022-07-25T19:31:53.804Z,7.72
2022-07-25T19:34:20.701Z,6.18
2022-07-25T19:36:47.548Z,7.95
2022-07-25T19:39:15.014Z,4.75
2022-07-25T19:41:46.693Z,7.95
2022-07-25T19:44:14.305Z,6.35
2022-07-25T19:46:41.176Z,9.35
2022-07-25T19:49:08.403Z,8.00
2022-07-25T19:51:35.387Z,9.25
2022-07-25T19:54:03.610Z,6.28
2022-07-25T19:56:31.393Z,3.72
2022-07-25T19:58:58.234Z,4.85
2022-07-25T20:01:25.132Z,4.82
2022-07-25T20:03:52.025Z,7.45
2022-07-25T20:06:20.664Z,8.50
2022-07-25T20:08:47.938Z,8.80
2022-07-25T20:11:15.945Z,6.70
2022-07-25T20:13:42.749Z,8.13
2022-07-25T20:16:09.879Z,6.90
2022-07-25T20:18:36.842Z,7.65
2022-07-25T20:21:03.885Z,5.47
2022-07-25T20:23:30.791Z,9.18
2022-07-25T20:25:58.120Z,12.57
2022-07-25T20:28:24.988Z,10.70
2022-07-25T20:30:52.167Z,5.60
2022-07-25T20:33:19.199Z,7.03
2022-07-25T20:35:46.758Z,7.63
2022-07-25T20:38:13.526Z,7.88
2022-07-25T20:40:48.175Z,6.63
2022-07-25T20:43:16.296Z,8.93
2022-07-25T20:45:43.540Z,5.65
2022-07-25T20:48:10.503Z,7.97
2022-07-25T20:50:37.903Z,11.07
2022-07-25T20:53:06.466Z,12.10
2022-07-25T20:55:33.844Z,9.25
2022-07-25T20:58:01.147Z,8.43
2022-07-25T21:00:30.429Z,9.00
2022-07-25T21:02:59.291Z,6.40
2022-07-25T21:05:26.887Z,12.65
2022-07-25T21:07:53.839Z,6.57
2022-07-25T21:10:20.823Z,8.27
2022-07-25T21:12:47.909Z,6.50
2022-07-25T21:15:15.448Z,4.78
2022-07-25T21:17:42.391Z,6.78
2022-07-25T21:20:12.157Z,9.27
2022-07-25T21:22:39.772Z,8.38
2022-07-25T21:25:07.148Z,8.55
2022-07-25T21:27:34.136Z,12.30
2022-07-25T21:30:01.094Z,5.97
2022-07-25T21:32:27.984Z,9.07
2022-07-25T21:34:54.891Z,8.13
2022-07-25T21:37:21.768Z,7.45
2022-07-25T21:39:48.755Z,9.07
2022-07-25T21:42:15.682Z,6.68
2022-07-25T21:44:43.906Z,11.68
2022-07-25T21:47:11.436Z,8.80
2022-07-25T21:49:57.372Z,7.97
2022-07-25T21:52:30.213Z,8.60
2022-07-25T21:55:03.465Z,7.82
2022-07-25T21:57:30.703Z,5.97
2022-07-25T21:59:57.657Z,6.70
2022-07-25T22:02:24.807Z,7.40
2022-07-25T22:04:51.600Z,8.65
2022-07-25T22:07:18.608Z,9.90
2022-07-25T22:09:45.597Z,9.82
2022-07-25T22:12:12.560Z,9.23
2022-07-25T22:14:39.302Z,13.70
2022-07-25T22:17:06.220Z,6.18
2022-07-25T22:19:33.451Z,6.65
2022-07-25T22:22:00.426Z,6.45
2022-07-25T22:24:27.279Z,5.85
2022-07-25T22:26:54.216Z,7.63
2022-07-25T22:29:21.154Z,9.65
2022-07-25T22:31:48.035Z,10.55
2022-07-25T22:34:14.919Z,8.88
2022-07-25T22:36:41.714Z,4.82
2022-07-25T22:39:08.986Z,6.05
2022-07-25T22:41:36.072Z,5.75
2022-07-25T22:44:03.415Z,9.80
2022-07-25T22:46:31.094Z,9.10
2022-07-25T22:48:58.568Z,9.07
2022-07-25T22:51:26.630Z,5.55
2022-07-25T22:53:53.867Z,8.63
2022-07-25T22:56:21.865Z,6.38
2022-07-25T22:58:49.369Z,7.45
2022-07-25T23:01:19.850Z,7.50
2022-07-25T23:03:49.851Z,5.63
2022-07-25T23:06:18.561Z,9.73
2022-07-25T23:08:45.577Z,13.85
2022-07-25T23:11:12.518Z,9.05
2022-07-25T23:13:39.273Z,5.97
2022-07-25T23:16:10.100Z,8.68
2022-07-25T23:18:38.027Z,8.93
2022-07-25T23:21:05.356Z,7.70
2022-07-25T23:23:32.453Z,13.50
2022-07-25T23:25:59.383Z,14.05
2022-07-25T23:28:26.183Z,8.25
2022-07-25T23:30:53.022Z,15.45
2022-07-25T23:33:25.304Z,4.85
2022-07-25T23:35:53.459Z,8.38
2022-07-25T23:38:21.237Z,7.50
2022-07-25T23:40:48.918Z,7.72
2022-07-25T23:43:17.609Z,9.25
2022-07-25T23:46:00.394Z,6.18
2022-07-25T23:48:27.881Z,10.68
2022-07-25T23:50:54.721Z,8.30
2022-07-25T23:53:21.594Z,9.80
2022-07-25T23:55:48.663Z,7.07
2022-07-25T23:58:15.976Z,8.00
